Time;durP1;ratioP1;P1;durP2;ratioP2;P2;SDS_P1;SDS_P2;PMS_P1;PMS_P2;Temp;Humidity;BMP_temperature;BMP_pressure;BME280_temperature;BME280_humidity;BME280_pressure;Samples;Min_cycle;Max_cycle;Signal;HPM_P1;HPM_P2
2022/05/28 00:00:01;;;;;;;;;;;12.60;99.30;;;;;;5018979;28;37850;-56
2022/05/28 00:02:28;;;;;;;;;;;12.60;99.90;;;;;;5018389;28;37575;-56
2022/05/28 00:04:55;;;;;;;;;;;12.50;99.90;;;;;;5018521;28;38026;-57
2022/05/28 00:07:22;;;;;;;;;;;12.50;99.90;;;;;;5019677;28;38218;-56
2022/05/28 00:09:49;;;;;;;;;;;12.50;99.90;;;;;;5017498;28;35196;-57
2022/05/28 00:12:16;;;;;;;;;;;12.40;99.90;;;;;;5019033;28;38006;-56
2022/05/28 00:14:45;;;;;;;;;;;12.40;99.90;;;;;;5019428;28;39988;-56
2022/05/28 00:17:12;;;;;;;;;;;12.30;99.90;;;;;;5018512;28;37345;-56
2022/05/28 00:19:39;;;;;;;;;;;12.30;99.90;;;;;;5018606;28;36810;-56
2022/05/28 00:22:07;;;;;;;;;;;12.30;99.90;;;;;;5017229;28;39009;-56
2022/05/28 00:24:34;;;;;;;;;;;12.30;99.90;;;;;;5016608;28;36896;-56
2022/05/28 00:27:01;;;;;;;;;;;12.30;99.90;;;;;;5018178;28;38047;-56
2022/05/28 00:29:28;;;;;;;;;;;12.30;99.90;;;;;;5018128;28;36342;-56
2022/05/28 00:31:57;;;;;;;;;;;12.30;99.90;;;;;;5018474;28;38251;-57
2022/05/28 00:34:25;;;;;;;;;;;12.30;99.90;;;;;;5019179;28;38430;-56
2022/05/28 00:36:53;;;;;;;;;;;12.20;99.90;;;;;;5018869;28;36996;-57
2022/05/28 00:39:20;;;;;;;;;;;12.20;99.90;;;;;;5018498;28;36427;-57
2022/05/28 00:41:47;;;;;;;;;;;12.20;99.90;;;;;;5017836;28;39814;-56
2022/05/28 00:44:14;;;;;;;;;;;12.20;99.90;;;;;;5018823;28;39259;-56
2022/05/28 00:46:42;;;;;;;;;;;12.20;99.90;;;;;;5019963;28;37551;-56
2022/05/28 00:49:15;;;;;;;;;;;12.10;99.90;;;;;;5018833;28;36490;-56
2022/05/28 00:51:43;;;;;;;;;;;12.10;99.90;;;;;;5018640;28;37838;-56
2022/05/28 00:54:11;;;;;;;;;;;12.00;99.90;;;;;;5016475;28;38069;-56
2022/05/28 00:56:38;;;;;;;;;;;12.00;99.60;;;;;;5018521;28;36334;-56
2022/05/28 00:59:05;;;;;;;;;;;11.90;99.70;;;;;;5017163;28;36382;-56
2022/05/28 01:01:35;;;;;;;;;;;11.90;99.60;;;;;;5012930;28;38449;-56
2022/05/28 01:04:05;;;;;;;;;;;11.90;98.90;;;;;;4995236;28;39662;-56
2022/05/28 01:06:36;;;;;;;;;;;11.90;98.70;;;;;;4994225;28;36318;-56
2022/05/28 01:09:06;;;;;;;;;;;11.80;98.70;;;;;;4993707;28;36118;-56
2022/05/28 01:11:36;;;;;;;;;;;11.80;98.60;;;;;;4995895;28;38366;-56
2022/05/28 01:14:06;;;;;;;;;;;11.80;98.50;;;;;;4995871;28;36806;-57
2022/05/28 01:16:35;;;;;;;;;;;11.80;98.90;;;;;;4994771;28;37490;-56
2022/05/28 01:19:05;;;;;;;;;;;11.80;98.90;;;;;;4996252;28;36179;-56
2022/05/28 01:21:37;;;;;;;;;;;11.70;99.00;;;;;;4997373;28;35207;-57
2022/05/28 01:24:07;;;;;;;;;;;11.70;98.60;;;;;;4997811;28;38375;-56
2022/05/28 01:26:43;;;;;;;;;;;11.70;98.80;;;;;;4997448;28;36551;-56
2022/05/28 01:29:11;;;;;;;;;;;11.70;98.70;;;;;;4997124;28;35245;-56
2022/05/28 01:31:39;;;;;;;;;;;11.70;99.20;;;;;;4997931;28;38366;-57
2022/05/28 01:34:08;;;;;;;;;;;11.70;98.70;;;;;;4998454;28;37324;-56
2022/05/28 01:36:35;;;;;;;;;;;11.70;99.30;;;;;;4997674;28;36500;-57
2022/05/28 01:39:03;;;;;;;;;;;11.70;98.90;;;;;;4996997;28;36517;-56
2022/05/28 01:41:31;;;;;;;;;;;11.80;98.80;;;;;;4995696;28;37951;-56
2022/05/28 01:44:01;;;;;;;;;;;11.70;99.00;;;;;;4998174;28;39657;-56
2022/05/28 01:46:28;;;;;;;;;;;11.70;99.40;;;;;;4998212;28;37574;-56
2022/05/28 01:48:56;;;;;;;;;;;11.70;99.30;;;;;;4997121;28;36412;-56
2022/05/28 01:51:24;;;;;;;;;;;11.70;98.80;;;;;;4997365;28;37901;-56
2022/05/28 01:54:09;;;;;;;;;;;11.70;98.90;;;;;;4996072;28;38013;-56
2022/05/28 01:56:37;;;;;;;;;;;11.70;98.80;;;;;;4996075;28;37395;-56
2022/05/28 01:59:06;;;;;;;;;;;11.70;99.20;;;;;;4995650;28;36536;-56
2022/05/28 02:01:33;;;;;;;;;;;11.70;98.70;;;;;;4995754;28;37557;-56
2022/05/28 02:04:01;;;;;;;;;;;11.70;98.80;;;;;;4998647;28;38966;-57
2022/05/28 02:06:28;;;;;;;;;;;11.70;99.00;;;;;;4997820;28;36444;-56
2022/05/28 02:08:56;;;;;;;;;;;11.60;99.20;;;;;;4995969;28;37270;-57
2022/05/28 02:11:24;;;;;;;;;;;11.60;98.90;;;;;;4997228;28;37675;-57
2022/05/28 02:13:56;;;;;;;;;;;11.60;98.80;;;;;;4997367;28;37058;-57
2022/05/28 02:16:27;;;;;;;;;;;11.70;99.20;;;;;;4998884;28;37357;-57
2022/05/28 02:18:57;;;;;;;;;;;11.60;99.00;;;;;;4997181;28;36423;-56
2022/05/28 02:21:27;;;;;;;;;;;11.60;99.80;;;;;;4997691;28;37847;-56
2022/05/28 02:23:56;;;;;;;;;;;11.60;99.10;;;;;;4996482;28;37186;-56
2022/05/28 02:26:26;;;;;;;;;;;11.60;99.70;;;;;;4996205;28;36578;-56
2022/05/28 02:28:53;;;;;;;;;;;11.70;99.30;;;;;;4996628;28;38135;-56
2022/05/28 02:31:24;;;;;;;;;;;11.70;99.20;;;;;;4997435;28;39270;-56
2022/05/28 02:33:53;;;;;;;;;;;11.70;99.80;;;;;;4997113;28;37383;-57
2022/05/28 02:36:20;;;;;;;;;;;11.70;99.40;;;;;;4995971;28;35977;-57
2022/05/28 02:38:47;;;;;;;;;;;11.70;99.70;;;;;;4997250;28;36386;-56
2022/05/28 02:41:14;;;;;;;;;;;11.70;99.90;;;;;;4997135;28;37578;-56
2022/05/28 02:43:42;;;;;;;;;;;11.80;99.90;;;;;;4997124;28;38993;-57
2022/05/28 02:46:09;;;;;;;;;;;11.80;99.80;;;;;;4997381;28;38053;-56
2022/05/28 02:48:36;;;;;;;;;;;11.80;99.90;;;;;;4996428;28;35029;-56
2022/05/28 02:51:06;;;;;;;;;;;11.80;99.90;;;;;;4997043;28;38107;-56
2022/05/28 02:53:33;;;;;;;;;;;11.70;99.90;;;;;;4997096;28;37025;-55
2022/05/28 02:56:00;;;;;;;;;;;11.70;99.90;;;;;;4996637;28;37733;-56
2022/05/28 02:58:27;;;;;;;;;;;11.60;99.90;;;;;;4995813;28;35019;-56
2022/05/28 03:00:54;;;;;;;;;;;11.60;99.90;;;;;;4997092;28;40025;-56
2022/05/28 03:03:21;;;;;;;;;;;11.60;99.90;;;;;;4996629;28;38232;-56
2022/05/28 03:05:49;;;;;;;;;;;11.60;99.90;;;;;;4995982;28;36965;-56
2022/05/28 03:08:18;;;;;;;;;;;11.60;99.90;;;;;;4996067;28;36055;-56
2022/05/28 03:10:45;;;;;;;;;;;11.60;99.90;;;;;;4996847;28;38312;-56
2022/05/28 03:13:13;;;;;;;;;;;11.50;99.90;;;;;;4994955;28;38630;-56
2022/05/28 03:15:40;;;;;;;;;;;11.60;99.90;;;;;;4994537;28;37677;-56
2022/05/28 03:18:07;;;;;;;;;;;11.50;99.90;;;;;;5000007;28;37004;-56
2022/05/28 03:20:34;;;;;;;;;;;11.50;99.90;;;;;;4998554;28;36458;-56
2022/05/28 03:23:01;;;;;;;;;;;11.50;99.90;;;;;;5000149;28;38541;-56
2022/05/28 03:25:29;;;;;;;;;;;11.50;99.90;;;;;;4998112;28;36425;-56
2022/05/28 03:27:56;;;;;;;;;;;11.50;99.90;;;;;;4998704;28;35197;-56
2022/05/28 03:30:23;;;;;;;;;;;11.50;99.90;;;;;;4998793;28;39837;-56
2022/05/28 03:32:50;;;;;;;;;;;11.50;99.90;;;;;;4998860;28;37270;-56
2022/05/28 03:35:17;;;;;;;;;;;11.50;99.90;;;;;;4999308;28;38755;-56
2022/05/28 03:37:44;;;;;;;;;;;11.50;99.90;;;;;;4998699;28;37843;-55
2022/05/28 03:40:12;;;;;;;;;;;11.50;99.90;;;;;;4998986;28;37746;-55
2022/05/28 03:42:40;;;;;;;;;;;11.50;99.90;;;;;;4997096;28;39072;-56
2022/05/28 03:45:07;;;;;;;;;;;11.50;99.90;;;;;;4999297;28;39159;-55
2022/05/28 03:47:34;;;;;;;;;;;11.50;99.90;;;;;;4997183;28;36694;-56
2022/05/28 03:50:02;;;;;;;;;;;11.50;99.90;;;;;;4996965;28;37732;-56
2022/05/28 03:52:29;;;;;;;;;;;11.50;99.90;;;;;;4999482;28;39070;-56
2022/05/28 03:54:56;;;;;;;;;;;11.40;99.90;;;;;;4997074;28;38272;-55
2022/05/28 03:57:25;;;;;;;;;;;11.40;99.90;;;;;;4999324;28;35175;-56
2022/05/28 03:59:54;;;;;;;;;;;11.40;99.90;;;;;;4997952;28;36353;-56
2022/05/28 04:02:21;;;;;;;;;;;11.40;99.90;;;;;;4998829;28;38280;-56
2022/05/28 04:04:48;;;;;;;;;;;11.30;99.90;;;;;;4999724;28;38010;-56
2022/05/28 04:07:16;;;;;;;;;;;11.30;99.90;;;;;;4997055;28;36944;-56
2022/05/28 04:09:43;;;;;;;;;;;11.30;99.90;;;;;;4998019;28;37771;-56
2022/05/28 04:12:11;;;;;;;;;;;11.30;99.90;;;;;;4998514;28;37743;-56
2022/05/28 04:14:38;;;;;;;;;;;11.30;99.90;;;;;;4999213;28;37654;-56
2022/05/28 04:17:06;;;;;;;;;;;11.20;99.90;;;;;;4999701;28;35995;-55
2022/05/28 04:19:33;;;;;;;;;;;11.20;99.90;;;;;;4998256;28;38385;-56
2022/05/28 04:22:00;;;;;;;;;;;11.20;99.90;;;;;;4999879;28;39726;-54
2022/05/28 04:24:27;;;;;;;;;;;11.30;99.90;;;;;;4997166;28;36476;-56
2022/05/28 04:26:54;;;;;;;;;;;11.30;99.90;;;;;;4997257;28;36309;-56
2022/05/28 04:29:21;;;;;;;;;;;11.30;99.90;;;;;;4997999;28;36604;-54
2022/05/28 04:31:49;;;;;;;;;;;11.40;99.90;;;;;;4999222;28;39476;-56
2022/05/28 04:34:17;;;;;;;;;;;11.50;99.90;;;;;;4997227;28;38377;-56
2022/05/28 04:36:44;;;;;;;;;;;11.50;99.90;;;;;;4994823;28;35093;-56
2022/05/28 04:39:11;;;;;;;;;;;11.60;99.90;;;;;;4997380;28;38001;-56
2022/05/28 04:41:38;;;;;;;;;;;11.70;99.90;;;;;;4996633;28;39998;-56
2022/05/28 04:44:05;;;;;;;;;;;11.70;99.90;;;;;;4998286;28;37479;-55
2022/05/28 04:46:32;;;;;;;;;;;11.70;99.90;;;;;;4998269;28;36268;-56
2022/05/28 04:48:59;;;;;;;;;;;11.70;99.90;;;;;;4997307;28;41272;-56
2022/05/28 04:51:28;;;;;;;;;;;11.70;99.90;;;;;;4996585;28;38467;-55
2022/05/28 04:53:55;;;;;;;;;;;11.70;99.90;;;;;;4996733;28;37592;-56
2022/05/28 04:56:22;;;;;;;;;;;11.70;99.90;;;;;;4997701;28;35721;-55
2022/05/28 04:58:49;;;;;;;;;;;11.70;99.90;;;;;;4998094;28;38941;-57
2022/05/28 05:01:18;;;;;;;;;;;11.70;99.90;;;;;;4996480;28;39135;-56
2022/05/28 05:03:45;;;;;;;;;;;11.70;99.90;;;;;;4997576;28;38026;-56
2022/05/28 05:06:12;;;;;;;;;;;11.70;99.90;;;;;;4997975;28;38277;-56
2022/05/28 05:08:40;;;;;;;;;;;11.80;99.90;;;;;;4999068;28;36410;-56
2022/05/28 05:11:07;;;;;;;;;;;11.80;99.90;;;;;;4997405;28;39266;-56
2022/05/28 05:13:34;;;;;;;;;;;11.90;99.90;;;;;;4997795;28;38258;-55
2022/05/28 05:16:01;;;;;;;;;;;11.80;99.90;;;;;;4997542;28;36304;-46
2022/05/28 05:18:28;;;;;;;;;;;11.90;99.90;;;;;;4994199;28;38433;-45
2022/05/28 05:20:55;;;;;;;;;;;11.90;99.90;;;;;;4994645;28;39934;-47
2022/05/28 05:23:22;;;;;;;;;;;11.90;99.90;;;;;;4994204;28;37727;-49
2022/05/28 05:25:51;;;;;;;;;;;12.00;99.90;;;;;;4997131;28;35241;-47
2022/05/28 05:28:18;;;;;;;;;;;12.00;99.90;;;;;;5007512;28;37787;-45
2022/05/28 05:30:45;;;;;;;;;;;12.00;99.90;;;;;;4995774;28;37834;-50
2022/05/28 05:33:12;;;;;;;;;;;12.00;99.90;;;;;;4995723;28;36453;-48
2022/05/28 05:35:39;;;;;;;;;;;12.20;99.90;;;;;;4997267;28;37331;-49
2022/05/28 05:38:06;;;;;;;;;;;12.50;99.90;;;;;;4997326;28;36312;-49
2022/05/28 05:40:34;;;;;;;;;;;12.80;99.90;;;;;;4995582;28;39195;-47
2022/05/28 05:43:02;;;;;;;;;;;13.10;99.90;;;;;;4997210;28;39087;-46
2022/05/28 05:45:30;;;;;;;;;;;13.30;99.90;;;;;;4998139;28;37267;-45
2022/05/28 05:47:57;;;;;;;;;;;13.60;99.90;;;;;;4997230;28;39516;-47
2022/05/28 05:50:24;;;;;;;;;;;13.70;99.90;;;;;;4997138;28;38406;-46
2022/05/28 05:52:51;;;;;;;;;;;13.80;99.80;;;;;;4996454;28;36352;-49
2022/05/28 05:55:18;;;;;;;;;;;13.80;99.90;;;;;;4996915;28;36526;-56
2022/05/28 05:57:45;;;;;;;;;;;13.80;99.60;;;;;;4996799;28;37994;-56
2022/05/28 06:00:15;;;;;;;;;;;13.80;99.60;;;;;;4996804;28;40148;-56
2022/05/28 06:02:42;;;;;;;;;;;13.80;99.60;;;;;;4996677;28;38255;-56
2022/05/28 06:05:09;;;;;;;;;;;13.90;99.70;;;;;;4996412;28;38448;-56
2022/05/28 06:07:38;;;;;;;;;;;13.90;99.50;;;;;;4995990;28;38386;-55
2022/05/28 06:10:07;;;;;;;;;;;13.90;99.70;;;;;;4995089;28;39041;-57
2022/05/28 06:12:34;;;;;;;;;;;13.80;99.50;;;;;;4995082;28;37803;-56
2022/05/28 06:15:01;;;;;;;;;;;13.70;98.90;;;;;;4995708;28;36236;-56
2022/05/28 06:17:30;;;;;;;;;;;13.60;99.40;;;;;;4995192;28;37082;-56
2022/05/28 06:19:57;;;;;;;;;;;13.50;99.60;;;;;;4995747;28;40151;-56
2022/05/28 06:22:24;;;;;;;;;;;13.30;99.60;;;;;;4996680;28;37685;-56
2022/05/28 06:24:51;;;;;;;;;;;13.20;99.90;;;;;;4995564;28;36802;-56
2022/05/28 06:27:18;;;;;;;;;;;13.10;99.90;;;;;;4996742;28;37892;-55
2022/05/28 06:29:45;;;;;;;;;;;13.10;99.90;;;;;;4996530;28;39250;-57
2022/05/28 06:32:12;;;;;;;;;;;13.10;99.90;;;;;;4997675;28;38178;-57
2022/05/28 06:34:41;;;;;;;;;;;13.30;99.90;;;;;;4997170;28;35188;-56
2022/05/28 06:37:08;;;;;;;;;;;13.40;99.90;;;;;;4995678;28;36464;-56
2022/05/28 06:39:36;;;;;;;;;;;13.40;99.90;;;;;;4994950;28;38778;-57
2022/05/28 06:42:03;;;;;;;;;;;13.50;99.90;;;;;;4995879;28;38670;-56
2022/05/28 06:44:30;;;;;;;;;;;13.50;99.90;;;;;;4996423;28;38639;-56
2022/05/28 06:47:00;;;;;;;;;;;13.50;99.90;;;;;;4996111;28;37638;-56
2022/05/28 06:49:28;;;;;;;;;;;13.50;99.90;;;;;;4996500;28;37009;-56
2022/05/28 06:51:56;;;;;;;;;;;13.40;99.90;;;;;;4995483;28;37653;-57
2022/05/28 06:54:23;;;;;;;;;;;13.30;99.90;;;;;;4995983;28;37055;-56
2022/05/28 06:56:50;;;;;;;;;;;13.20;99.90;;;;;;4997386;28;38617;-57
2022/05/28 06:59:17;;;;;;;;;;;13.10;99.90;;;;;;4995962;28;38511;-55
2022/05/28 07:01:44;;;;;;;;;;;13.00;99.90;;;;;;4995500;28;37491;-56
2022/05/28 07:04:11;;;;;;;;;;;13.00;99.90;;;;;;4996284;28;38374;-56
2022/05/28 07:06:38;;;;;;;;;;;13.00;99.90;;;;;;4996879;28;38426;-57
2022/05/28 07:09:07;;;;;;;;;;;13.00;99.90;;;;;;4994718;28;40273;-56
2022/05/28 07:11:34;;;;;;;;;;;13.00;99.90;;;;;;4995945;28;37219;-56
2022/05/28 07:14:01;;;;;;;;;;;13.10;99.90;;;;;;4996235;28;37282;-56
2022/05/28 07:16:28;;;;;;;;;;;13.10;99.90;;;;;;4994911;28;37629;-56
2022/05/28 07:18:55;;;;;;;;;;;13.20;99.90;;;;;;4993699;28;39063;-55
2022/05/28 07:21:22;;;;;;;;;;;13.20;99.90;;;;;;4994223;28;36417;-55
2022/05/28 07:23:49;;;;;;;;;;;13.10;99.90;;;;;;4994458;28;37043;-56
2022/05/28 07:26:18;;;;;;;;;;;13.10;99.90;;;;;;4994235;28;36723;-56
2022/05/28 07:28:46;;;;;;;;;;;13.20;99.90;;;;;;4995474;28;37067;-56
2022/05/28 07:31:13;;;;;;;;;;;13.50;99.90;;;;;;4996400;28;36932;-56
2022/05/28 07:33:42;;;;;;;;;;;13.80;99.90;;;;;;4994705;28;37561;-56
2022/05/28 07:36:10;;;;;;;;;;;14.10;99.90;;;;;;4994371;28;37523;-56
2022/05/28 07:38:37;;;;;;;;;;;14.20;99.90;;;;;;4994670;28;38774;-56
2022/05/28 07:41:05;;;;;;;;;;;14.20;98.90;;;;;;4994930;28;36796;-56
2022/05/28 07:43:35;;;;;;;;;;;14.10;98.60;;;;;;4995064;28;38909;-55
2022/05/28 07:46:03;;;;;;;;;;;14.00;99.50;;;;;;4994760;28;37569;-56
2022/05/28 07:48:30;;;;;;;;;;;14.00;99.20;;;;;;4994920;28;37431;-56
2022/05/28 07:50:57;;;;;;;;;;;14.00;99.70;;;;;;4995631;28;38221;-55
2022/05/28 07:53:24;;;;;;;;;;;14.00;98.50;;;;;;4995220;28;36760;-55
2022/05/28 07:55:51;;;;;;;;;;;13.90;98.00;;;;;;4994697;28;40017;-55
2022/05/28 07:58:20;;;;;;;;;;;13.80;97.90;;;;;;4995079;28;38257;-56
2022/05/28 08:00:50;;;;;;;;;;;13.80;98.00;;;;;;4994622;28;37575;-57
2022/05/28 08:03:18;;;;;;;;;;;13.90;98.80;;;;;;4994375;28;36890;-56
2022/05/28 08:05:46;;;;;;;;;;;14.10;99.10;;;;;;4998459;28;38390;-56
2022/05/28 08:08:13;;;;;;;;;;;14.20;97.90;;;;;;4997388;28;39320;-56
2022/05/28 08:10:40;;;;;;;;;;;14.20;98.10;;;;;;4997264;28;35973;-55
2022/05/28 08:13:08;;;;;;;;;;;14.10;96.70;;;;;;4997935;28;36494;-55
2022/05/28 08:15:36;;;;;;;;;;;14.10;95.90;;;;;;4998092;28;38434;-56
2022/05/28 08:18:05;;;;;;;;;;;14.10;97.00;;;;;;4999718;28;39595;-56
2022/05/28 08:23:13;;;;;;;;;;;14.60;96.40;;;;;;4963014;28;36967;-56
2022/05/28 08:25:41;;;;;;;;;;;14.90;96.80;;;;;;4995651;28;39519;-57
2022/05/28 08:28:08;;;;;;;;;;;15.10;96.60;;;;;;4998095;28;38253;-54
2022/05/28 08:30:37;;;;;;;;;;;15.30;95.40;;;;;;4996909;28;38105;-56
2022/05/28 08:33:06;;;;;;;;;;;15.20;93.70;;;;;;4996784;28;36922;-56
2022/05/28 08:35:34;;;;;;;;;;;15.00;94.30;;;;;;4997639;28;38967;-56
2022/05/28 08:38:03;;;;;;;;;;;14.80;94.70;;;;;;4998725;28;37899;-56
2022/05/28 08:40:31;;;;;;;;;;;14.80;96.50;;;;;;4997276;28;36786;-57
2022/05/28 08:42:58;;;;;;;;;;;14.80;94.70;;;;;;4997312;28;35968;-57
2022/05/28 08:45:25;;;;;;;;;;;14.70;94.60;;;;;;4994429;28;36585;-56
2022/05/28 08:47:55;;;;;;;;;;;14.80;95.40;;;;;;4995713;28;39467;-56
2022/05/28 08:50:23;;;;;;;;;;;15.00;95.60;;;;;;4995649;28;36422;-57
2022/05/28 08:52:56;;;;;;;;;;;15.20;95.30;;;;;;4997093;28;34967;-57
2022/05/28 08:55:25;;;;;;;;;;;15.50;95.40;;;;;;4996477;28;39096;-57
2022/05/28 08:57:57;;;;;;;;;;;15.60;93.20;;;;;;4997173;28;38978;-56
2022/05/28 09:00:29;;;;;;;;;;;15.80;92.80;;;;;;4995939;28;37940;-56
2022/05/28 09:03:00;;;;;;;;;;;15.90;92.60;;;;;;4996407;28;36669;-57
2022/05/28 09:05:30;;;;;;;;;;;15.80;92.30;;;;;;4996005;28;38911;-56
2022/05/28 09:07:58;;;;;;;;;;;15.60;92.00;;;;;;4996769;28;38517;-56
2022/05/28 09:10:27;;;;;;;;;;;15.40;92.50;;;;;;4993464;28;35980;-57
2022/05/28 09:12:56;;;;;;;;;;;15.20;91.50;;;;;;4998165;28;36989;-56
2022/05/28 09:15:24;;;;;;;;;;;15.00;90.80;;;;;;4997430;28;38343;-57
2022/05/28 09:17:52;;;;;;;;;;;14.80;91.50;;;;;;4997221;28;37050;-60
2022/05/28 09:20:21;;;;;;;;;;;14.80;92.50;;;;;;4997625;28;36202;-57
2022/05/28 09:22:50;;;;;;;;;;;14.90;93.90;;;;;;4997282;28;38334;-57
2022/05/28 09:25:19;;;;;;;;;;;15.10;92.50;;;;;;4996638;28;38328;-57
2022/05/28 09:27:50;;;;;;;;;;;15.10;92.00;;;;;;4994140;28;39317;-56
2022/05/28 09:30:19;;;;;;;;;;;15.30;94.00;;;;;;4999055;28;37539;-57
2022/05/28 09:32:56;;;;;;;;;;;15.30;92.30;;;;;;4997565;28;37504;-57
2022/05/28 09:35:27;;;;;;;;;;;15.40;93.70;;;;;;4999254;28;38098;-56
2022/05/28 09:37:58;;;;;;;;;;;15.60;93.80;;;;;;4997479;28;38831;-56
2022/05/28 09:40:29;;;;;;;;;;;15.70;92.40;;;;;;4996186;28;37065;-56
2022/05/28 09:43:02;;;;;;;;;;;15.60;92.40;;;;;;4994871;28;36531;-59
2022/05/28 09:45:32;;;;;;;;;;;15.50;90.90;;;;;;4996705;28;39228;-56
2022/05/28 09:48:00;;;;;;;;;;;15.30;91.90;;;;;;4996242;28;40313;-56
2022/05/28 09:50:28;;;;;;;;;;;15.00;94.20;;;;;;4995874;28;37522;-57
2022/05/28 09:55:57;;;;;;;;;;;14.80;92.10;;;;;;4997600;28;41482;-57
2022/05/28 09:58:25;;;;;;;;;;;14.80;94.40;;;;;;4996387;28;37113;-56
2022/05/28 10:01:03;;;;;;;;;;;14.80;93.20;;;;;;4997882;28;35896;-56
2022/05/28 10:06:15;;;;;;;;;;;14.70;95.00;;;;;;4966118;28;36434;-57
2022/05/28 10:08:43;;;;;;;;;;;14.70;93.30;;;;;;4996968;28;37982;-56
2022/05/28 10:11:14;;;;;;;;;;;14.80;94.40;;;;;;4996317;28;37018;-57
2022/05/28 10:13:44;;;;;;;;;;;15.00;92.70;;;;;;4997771;28;37076;-57
2022/05/28 10:16:12;;;;;;;;;;;15.00;90.80;;;;;;4996194;28;37839;-56
2022/05/28 10:18:41;;;;;;;;;;;15.00;92.20;;;;;;4996535;28;40259;-56
2022/05/28 10:21:09;;;;;;;;;;;15.20;92.10;;;;;;4995675;28;36806;-58
2022/05/28 10:23:38;;;;;;;;;;;15.40;92.70;;;;;;4997147;28;34998;-57
2022/05/28 10:26:11;;;;;;;;;;;15.70;91.90;;;;;;4995260;28;39026;-56
2022/05/28 10:28:45;;;;;;;;;;;15.80;89.70;;;;;;4996545;28;39864;-56
2022/05/28 10:31:16;;;;;;;;;;;15.70;86.80;;;;;;4997376;28;38663;-56
2022/05/28 10:33:44;;;;;;;;;;;15.80;87.10;;;;;;4993693;28;36893;-56
2022/05/28 10:36:15;;;;;;;;;;;15.90;88.70;;;;;;4995890;28;37623;-56
2022/05/28 10:38:42;;;;;;;;;;;15.90;78.80;;;;;;4995685;28;37199;-56
2022/05/28 10:41:16;;;;;;;;;;;15.90;83.80;;;;;;4996089;28;37725;-56
2022/05/28 10:43:43;;;;;;;;;;;15.90;86.30;;;;;;4995795;28;35256;-57
2022/05/28 10:46:13;;;;;;;;;;;15.90;86.00;;;;;;4997061;28;38933;-56
2022/05/28 10:48:47;;;;;;;;;;;15.90;82.70;;;;;;4996684;28;38969;-57
2022/05/28 10:51:20;;;;;;;;;;;16.00;83.60;;;;;;4996409;28;38337;-56
2022/05/28 10:53:58;;;;;;;;;;;16.20;84.40;;;;;;4995287;28;36384;-56
2022/05/28 10:56:34;;;;;;;;;;;16.20;83.70;;;;;;4997203;28;37510;-57
2022/05/28 10:59:07;;;;;;;;;;;16.20;82.30;;;;;;4995906;28;38367;-57
2022/05/28 11:01:38;;;;;;;;;;;16.20;83.70;;;;;;4995058;28;39599;-56
2022/05/28 11:04:14;;;;;;;;;;;16.30;85.40;;;;;;4995472;28;37057;-56
2022/05/28 11:07:02;;;;;;;;;;;16.30;85.00;;;;;;4995020;28;38373;-57
2022/05/28 11:09:37;;;;;;;;;;;16.30;82.40;;;;;;4996459;28;38312;-57
2022/05/28 11:12:14;;;;;;;;;;;16.10;80.20;;;;;;4995719;28;38727;-57
2022/05/28 11:14:54;;;;;;;;;;;15.90;80.80;;;;;;4996520;28;37265;-56
2022/05/28 11:17:27;;;;;;;;;;;15.90;83.90;;;;;;4995780;28;37474;-56
2022/05/28 11:20:01;;;;;;;;;;;15.90;84.40;;;;;;4995675;28;38252;-56
2022/05/28 11:22:35;;;;;;;;;;;15.80;81.50;;;;;;4993809;28;38981;-56
2022/05/28 11:25:09;;;;;;;;;;;15.90;86.00;;;;;;4997066;28;36972;-57
2022/05/28 11:27:42;;;;;;;;;;;15.90;81.70;;;;;;4996222;28;36564;-56
2022/05/28 11:30:13;;;;;;;;;;;15.70;80.70;;;;;;4996548;28;40448;-57
2022/05/28 11:32:43;;;;;;;;;;;15.50;83.00;;;;;;4997107;28;37836;-57
2022/05/28 11:35:14;;;;;;;;;;;15.20;87.40;;;;;;4995226;28;36546;-57
2022/05/28 11:37:43;;;;;;;;;;;15.00;92.50;;;;;;4994515;28;40340;-57
2022/05/28 11:40:12;;;;;;;;;;;14.80;95.00;;;;;;4997947;28;37877;-57
2022/05/28 11:42:43;;;;;;;;;;;14.60;96.70;;;;;;4999130;28;38322;-56
2022/05/28 11:45:14;;;;;;;;;;;14.50;98.20;;;;;;4998578;28;35647;-56
2022/05/28 11:47:46;;;;;;;;;;;14.40;99.30;;;;;;4999176;28;36404;-56
2022/05/28 11:53:06;;;;;;;;;;;14.50;99.50;;;;;;4997548;28;38395;-56
2022/05/28 11:55:35;;;;;;;;;;;14.40;99.00;;;;;;4999528;28;38359;-56
2022/05/28 11:58:05;;;;;;;;;;;14.40;98.90;;;;;;4997603;28;39305;-55
2022/05/28 12:00:34;;;;;;;;;;;14.40;98.30;;;;;;4997606;28;38334;-56
2022/05/28 12:03:04;;;;;;;;;;;14.60;97.60;;;;;;5000041;28;38399;-56
2022/05/28 12:05:40;;;;;;;;;;;14.80;98.20;;;;;;4998538;28;36131;-57
2022/05/28 12:08:08;;;;;;;;;;;14.90;97.50;;;;;;4997373;28;38705;-56
2022/05/28 12:10:38;;;;;;;;;;;15.00;95.80;;;;;;4997116;28;38490;-56
2022/05/28 12:13:07;;;;;;;;;;;15.10;95.90;;;;;;4997615;28;38138;-56
2022/05/28 12:15:35;;;;;;;;;;;15.30;96.20;;;;;;4998551;28;35820;-56
2022/05/28 12:18:06;;;;;;;;;;;15.30;92.10;;;;;;4998874;28;38233;-56
2022/05/28 12:20:35;;;;;;;;;;;15.20;90.30;;;;;;4996361;28;39240;-56
2022/05/28 12:23:04;;;;;;;;;;;15.20;90.40;;;;;;4998625;28;37828;-56
2022/05/28 12:25:33;;;;;;;;;;;15.10;91.00;;;;;;4997233;28;37335;-56
2022/05/28 12:28:09;;;;;;;;;;;15.00;92.00;;;;;;4997974;28;38224;-56
2022/05/28 12:30:48;;;;;;;;;;;14.90;93.60;;;;;;4997109;28;38028;-56
2022/05/28 12:33:20;;;;;;;;;;;14.90;93.30;;;;;;4995537;28;36516;-56
2022/05/28 12:35:50;;;;;;;;;;;14.80;91.50;;;;;;4997223;28;36078;-56
2022/05/28 12:38:22;;;;;;;;;;;14.70;92.50;;;;;;4997999;28;39088;-56
2022/05/28 12:40:52;;;;;;;;;;;14.70;92.30;;;;;;4998254;28;38301;-56
2022/05/28 12:43:33;;;;;;;;;;;14.70;93.40;;;;;;4997597;28;38399;-56
2022/05/28 12:46:13;;;;;;;;;;;14.80;93.50;;;;;;4999596;28;36360;-56
2022/05/28 12:48:40;;;;;;;;;;;15.00;92.80;;;;;;4997130;28;37463;-56
2022/05/28 12:51:19;;;;;;;;;;;15.20;92.70;;;;;;4997410;28;37873;-56
2022/05/28 12:53:49;;;;;;;;;;;15.40;92.60;;;;;;4997576;28;38067;-56
2022/05/28 12:56:24;;;;;;;;;;;15.50;92.00;;;;;;4997396;28;36867;-57
2022/05/28 12:58:52;;;;;;;;;;;15.70;92.30;;;;;;4997488;28;37869;-56
2022/05/28 13:01:22;;;;;;;;;;;15.60;90.10;;;;;;4998852;28;37788;-56
2022/05/28 13:03:50;;;;;;;;;;;15.50;90.70;;;;;;4995129;28;36360;-56
2022/05/28 13:06:22;;;;;;;;;;;15.50;91.30;;;;;;4996232;28;37243;-56
2022/05/28 13:08:52;;;;;;;;;;;15.60;90.30;;;;;;4996559;28;36420;-57
2022/05/28 13:11:28;;;;;;;;;;;15.60;92.30;;;;;;4996771;28;40747;-56
2022/05/28 13:14:04;;;;;;;;;;;15.70;89.20;;;;;;4997528;28;36399;-56
2022/05/28 13:16:48;;;;;;;;;;;15.60;88.50;;;;;;4996822;28;37042;-55
2022/05/28 13:19:33;;;;;;;;;;;15.50;87.60;;;;;;4995386;28;37925;-56
2022/05/28 13:22:04;;;;;;;;;;;15.50;85.50;;;;;;4997478;28;39294;-55
2022/05/28 13:24:52;;;;;;;;;;;15.40;88.70;;;;;;4996139;28;38171;-55
2022/05/28 13:27:26;;;;;;;;;;;15.40;90.50;;;;;;4995748;28;35983;-56
2022/05/28 13:30:04;;;;;;;;;;;15.50;91.20;;;;;;4997424;28;38691;-56
2022/05/28 13:32:32;;;;;;;;;;;15.60;91.60;;;;;;4996343;28;38790;-56
2022/05/28 13:34:59;;;;;;;;;;;15.70;86.50;;;;;;4997970;28;37326;-56
2022/05/28 13:37:27;;;;;;;;;;;15.60;86.70;;;;;;4996833;28;36437;-56
2022/05/28 13:39:56;;;;;;;;;;;15.60;87.60;;;;;;4997146;28;39252;-56
2022/05/28 13:42:23;;;;;;;;;;;15.70;87.40;;;;;;4996981;28;38730;-56
2022/05/28 13:44:52;;;;;;;;;;;15.80;88.00;;;;;;4997359;28;38236;-56
2022/05/28 13:47:26;;;;;;;;;;;15.70;83.50;;;;;;4996883;28;36625;-57
2022/05/28 13:49:54;;;;;;;;;;;15.60;83.90;;;;;;4995922;28;39145;-57
2022/05/28 13:52:24;;;;;;;;;;;15.60;85.70;;;;;;4997012;28;37740;-56
2022/05/28 13:54:55;;;;;;;;;;;15.60;85.90;;;;;;4996461;28;38358;-57
2022/05/28 13:57:22;;;;;;;;;;;15.50;85.00;;;;;;4996079;28;36562;-56
2022/05/28 13:59:56;;;;;;;;;;;15.30;86.80;;;;;;4996754;28;36494;-56
2022/05/28 14:02:25;;;;;;;;;;;15.30;88.50;;;;;;4997369;28;38588;-56
2022/05/28 14:04:53;;;;;;;;;;;15.30;88.50;;;;;;4997051;28;36409;-56
2022/05/28 14:07:23;;;;;;;;;;;15.30;90.00;;;;;;4997191;28;36089;-57
2022/05/28 14:09:50;;;;;;;;;;;15.40;90.00;;;;;;4995701;28;37555;-56
2022/05/28 14:12:20;;;;;;;;;;;15.50;90.10;;;;;;4996756;28;37659;-57
2022/05/28 14:14:47;;;;;;;;;;;15.40;89.00;;;;;;4996892;28;37355;-56
2022/05/28 14:17:18;;;;;;;;;;;15.10;92.00;;;;;;4996577;28;35908;-56
2022/05/28 14:19:48;;;;;;;;;;;14.80;94.20;;;;;;4996504;28;37865;-57
2022/05/28 14:22:22;;;;;;;;;;;14.50;96.00;;;;;;4997683;28;38044;-56
2022/05/28 14:24:55;;;;;;;;;;;14.20;96.70;;;;;;4997073;28;37238;-57
2022/05/28 14:27:24;;;;;;;;;;;14.10;98.00;;;;;;4995928;28;37117;-56
2022/05/28 14:29:52;;;;;;;;;;;14.00;98.60;;;;;;4996751;28;38243;-56
2022/05/28 14:32:21;;;;;;;;;;;14.00;99.80;;;;;;4996138;28;38737;-56
2022/05/28 14:34:50;;;;;;;;;;;14.10;99.90;;;;;;4997281;28;38485;-56
2022/05/28 14:37:24;;;;;;;;;;;14.20;99.50;;;;;;4996476;28;39411;-56